sensor_id;sensor_type;location;lat;lon;timestamp;temperature;humidity
14489;DHT22;7330;50.804;4.550;2022-10-26T00:03:25;14.90;99.90
14489;DHT22;7330;50.804;4.550;2022-10-26T00:05:52;15.00;99.90
14489;DHT22;7330;50.804;4.550;2022-10-26T00:13:14;14.90;99.90
14489;DHT22;7330;50.804;4.550;2022-10-26T00:15:41;15.00;99.90
14489;DHT22;7330;50.804;4.550;2022-10-26T00:18:08;15.00;99.90
14489;DHT22;7330;50.804;4.550;2022-10-26T00:20:35;14.90;99.90
14489;DHT22;7330;50.804;4.550;2022-10-26T00:23:02;15.00;99.90
14489;DHT22;7330;50.804;4.550;2022-10-26T00:25:28;15.00;99.90
14489;DHT22;7330;50.804;4.550;2022-10-26T00:27:55;15.00;99.90
14489;DHT22;7330;50.804;4.550;2022-10-26T00:30:23;15.00;99.90
14489;DHT22;7330;50.804;4.550;2022-10-26T00:35:17;15.00;99.90
14489;DHT22;7330;50.804;4.550;2022-10-26T00:37:44;15.00;99.90
14489;DHT22;7330;50.804;4.550;2022-10-26T00:40:11;15.00;99.90
14489;DHT22;7330;50.804;4.550;2022-10-26T00:42:37;15.00;99.90
14489;DHT22;7330;50.804;4.550;2022-10-26T00:45:06;15.00;99.90
14489;DHT22;7330;50.804;4.550;2022-10-26T00:47:37;15.00;99.90
14489;DHT22;7330;50.804;4.550;2022-10-26T00:50:07;15.00;99.90
14489;DHT22;7330;50.804;4.550;2022-10-26T00:52:34;15.00;99.90
14489;DHT22;7330;50.804;4.550;2022-10-26T00:55:02;15.10;99.90
14489;DHT22;7330;50.804;4.550;2022-10-26T00:57:29;15.00;99.90
14489;DHT22;7330;50.804;4.550;2022-10-26T00:59:56;15.00;99.90
14489;DHT22;7330;50.804;4.550;2022-10-26T01:02:23;15.00;99.90
14489;DHT22;7330;50.804;4.550;2022-10-26T01:07:18;15.00;99.90
14489;DHT22;7330;50.804;4.550;2022-10-26T01:09:46;15.00;99.90
14489;DHT22;7330;50.804;4.550;2022-10-26T01:12:12;15.10;99.90
14489;DHT22;7330;50.804;4.550;2022-10-26T01:14:39;15.10;99.90
14489;DHT22;7330;50.804;4.550;2022-10-26T01:17:08;15.10;99.90
14489;DHT22;7330;50.804;4.550;2022-10-26T01:25:02;15.10;99.90
14489;DHT22;7330;50.804;4.550;2022-10-26T01:30:16;15.20;99.90
14489;DHT22;7330;50.804;4.550;2022-10-26T01:32:44;15.20;99.90
14489;DHT22;7330;50.804;4.550;2022-10-26T01:35:13;15.10;99.90
14489;DHT22;7330;50.804;4.550;2022-10-26T01:37:42;15.10;99.90
14489;DHT22;7330;50.804;4.550;2022-10-26T01:40:12;15.20;99.90
14489;DHT22;7330;50.804;4.550;2022-10-26T01:42:46;15.20;99.90
14489;DHT22;7330;50.804;4.550;2022-10-26T01:45:14;15.20;99.90
14489;DHT22;7330;50.804;4.550;2022-10-26T01:50:10;15.30;99.90
14489;DHT22;7330;50.804;4.550;2022-10-26T01:52:37;15.20;99.90
14489;DHT22;7330;50.804;4.550;2022-10-26T01:57:31;15.20;99.90
14489;DHT22;7330;50.804;4.550;2022-10-26T02:00:03;15.30;99.90
14489;DHT22;7330;50.804;4.550;2022-10-26T02:02:36;15.30;99.90
14489;DHT22;7330;50.804;4.550;2022-10-26T02:07:53;15.30;99.90
14489;DHT22;7330;50.804;4.550;2022-10-26T02:10:24;15.30;99.90
14489;DHT22;7330;50.804;4.550;2022-10-26T02:12:55;15.30;99.90
14489;DHT22;7330;50.804;4.550;2022-10-26T02:15:25;15.30;99.90
14489;DHT22;7330;50.804;4.550;2022-10-26T02:17:56;15.40;99.90
14489;DHT22;7330;50.804;4.550;2022-10-26T02:20:25;15.40;99.90
14489;DHT22;7330;50.804;4.550;2022-10-26T02:25:22;15.40;99.90
14489;DHT22;7330;50.804;4.550;2022-10-26T02:27:50;15.40;99.90
14489;DHT22;7330;50.804;4.550;2022-10-26T02:30:19;15.40;99.90
14489;DHT22;7330;50.804;4.550;2022-10-26T02:32:46;15.50;99.90
14489;DHT22;7330;50.804;4.550;2022-10-26T02:35:13;15.50;99.90
14489;DHT22;7330;50.804;4.550;2022-10-26T02:37:41;15.50;99.90
14489;DHT22;7330;50.804;4.550;2022-10-26T02:40:10;15.60;99.90
14489;DHT22;7330;50.804;4.550;2022-10-26T02:42:40;15.60;99.90
14489;DHT22;7330;50.804;4.550;2022-10-26T02:45:08;15.70;99.90
14489;DHT22;7330;50.804;4.550;2022-10-26T02:47:36;15.70;99.90
14489;DHT22;7330;50.804;4.550;2022-10-26T02:54:58;15.80;99.90
14489;DHT22;7330;50.804;4.550;2022-10-26T02:57:27;15.90;99.90
14489;DHT22;7330;50.804;4.550;2022-10-26T02:59:56;15.90;99.90
14489;DHT22;7330;50.804;4.550;2022-10-26T03:02:23;15.90;99.90
14489;DHT22;7330;50.804;4.550;2022-10-26T03:04:51;15.90;99.90
14489;DHT22;7330;50.804;4.550;2022-10-26T03:07:21;15.90;99.90
14489;DHT22;7330;50.804;4.550;2022-10-26T03:09:48;16.00;99.90
14489;DHT22;7330;50.804;4.550;2022-10-26T03:14:42;16.00;99.90
14489;DHT22;7330;50.804;4.550;2022-10-26T03:17:10;16.00;99.90
14489;DHT22;7330;50.804;4.550;2022-10-26T03:19:36;16.00;99.90
14489;DHT22;7330;50.804;4.550;2022-10-26T03:22:03;16.00;99.90
14489;DHT22;7330;50.804;4.550;2022-10-26T03:24:30;16.10;99.90
14489;DHT22;7330;50.804;4.550;2022-10-26T03:26:57;16.00;99.90
14489;DHT22;7330;50.804;4.550;2022-10-26T03:29:23;16.10;99.90
14489;DHT22;7330;50.804;4.550;2022-10-26T03:31:50;16.10;99.90
14489;DHT22;7330;50.804;4.550;2022-10-26T03:36:47;16.10;99.90
14489;DHT22;7330;50.804;4.550;2022-10-26T03:39:14;16.10;99.90
14489;DHT22;7330;50.804;4.550;2022-10-26T03:41:41;16.10;99.90
14489;DHT22;7330;50.804;4.550;2022-10-26T03:44:08;16.10;99.90
14489;DHT22;7330;50.804;4.550;2022-10-26T03:46:35;16.10;99.90
14489;DHT22;7330;50.804;4.550;2022-10-26T03:51:29;16.20;99.90
14489;DHT22;7330;50.804;4.550;2022-10-26T03:53:57;16.20;99.90
14489;DHT22;7330;50.804;4.550;2022-10-26T03:58:51;16.20;99.90
14489;DHT22;7330;50.804;4.550;2022-10-26T04:01:18;16.20;99.90
14489;DHT22;7330;50.804;4.550;2022-10-26T04:03:44;16.30;99.90
14489;DHT22;7330;50.804;4.550;2022-10-26T04:06:11;16.30;99.90
14489;DHT22;7330;50.804;4.550;2022-10-26T04:08:38;16.30;99.90
14489;DHT22;7330;50.804;4.550;2022-10-26T04:11:06;16.30;99.90
14489;DHT22;7330;50.804;4.550;2022-10-26T04:13:32;16.30;99.90
14489;DHT22;7330;50.804;4.550;2022-10-26T04:15:59;16.30;99.90
14489;DHT22;7330;50.804;4.550;2022-10-26T04:20:53;16.30;99.90
14489;DHT22;7330;50.804;4.550;2022-10-26T04:23:20;16.30;99.90
14489;DHT22;7330;50.804;4.550;2022-10-26T04:25:47;16.40;99.90
14489;DHT22;7330;50.804;4.550;2022-10-26T04:28:15;16.40;99.90
14489;DHT22;7330;50.804;4.550;2022-10-26T04:33:09;16.40;99.90
14489;DHT22;7330;50.804;4.550;2022-10-26T04:35:36;16.40;99.90
14489;DHT22;7330;50.804;4.550;2022-10-26T04:38:03;16.30;99.90
14489;DHT22;7330;50.804;4.550;2022-10-26T04:40:31;16.40;99.90
14489;DHT22;7330;50.804;4.550;2022-10-26T04:47:59;16.30;99.90
14489;DHT22;7330;50.804;4.550;2022-10-26T04:50:26;16.30;99.90
14489;DHT22;7330;50.804;4.550;2022-10-26T04:52:53;16.30;99.90
14489;DHT22;7330;50.804;4.550;2022-10-26T04:55:20;16.30;99.90
14489;DHT22;7330;50.804;4.550;2022-10-26T04:57:46;16.30;99.90
14489;DHT22;7330;50.804;4.550;2022-10-26T05:00:13;16.30;99.90
14489;DHT22;7330;50.804;4.550;2022-10-26T05:02:40;16.30;99.90
14489;DHT22;7330;50.804;4.550;2022-10-26T05:05:08;16.30;99.90
14489;DHT22;7330;50.804;4.550;2022-10-26T05:10:02;16.30;99.90
14489;DHT22;7330;50.804;4.550;2022-10-26T05:12:29;16.30;99.90
14489;DHT22;7330;50.804;4.550;2022-10-26T05:14:55;16.30;99.90
14489;DHT22;7330;50.804;4.550;2022-10-26T05:17:23;16.30;99.90
14489;DHT22;7330;50.804;4.550;2022-10-26T05:24:49;16.40;99.90
14489;DHT22;7330;50.804;4.550;2022-10-26T05:27:15;16.30;99.90
14489;DHT22;7330;50.804;4.550;2022-10-26T05:32:09;16.30;99.90
14489;DHT22;7330;50.804;4.550;2022-10-26T05:34:36;16.30;99.90
14489;DHT22;7330;50.804;4.550;2022-10-26T05:37:03;16.30;99.90
14489;DHT22;7330;50.804;4.550;2022-10-26T05:39:29;16.20;99.90
14489;DHT22;7330;50.804;4.550;2022-10-26T05:41:58;16.30;99.90
14489;DHT22;7330;50.804;4.550;2022-10-26T05:44:24;16.30;99.90
14489;DHT22;7330;50.804;4.550;2022-10-26T05:46:51;16.30;99.90
14489;DHT22;7330;50.804;4.550;2022-10-26T05:49:18;16.30;99.90
14489;DHT22;7330;50.804;4.550;2022-10-26T05:54:12;16.30;99.90
14489;DHT22;7330;50.804;4.550;2022-10-26T05:56:39;16.30;99.90
14489;DHT22;7330;50.804;4.550;2022-10-26T05:59:10;16.30;99.90
14489;DHT22;7330;50.804;4.550;2022-10-26T06:01:41;16.20;99.90
14489;DHT22;7330;50.804;4.550;2022-10-26T06:04:12;16.30;99.90
14489;DHT22;7330;50.804;4.550;2022-10-26T06:06:43;16.30;99.90
14489;DHT22;7330;50.804;4.550;2022-10-26T06:09:11;16.30;99.90
14489;DHT22;7330;50.804;4.550;2022-10-26T06:11:38;16.30;99.90
14489;DHT22;7330;50.804;4.550;2022-10-26T06:14:05;16.30;99.90
14489;DHT22;7330;50.804;4.550;2022-10-26T06:16:35;16.30;99.90
14489;DHT22;7330;50.804;4.550;2022-10-26T06:19:06;16.30;99.90
14489;DHT22;7330;50.804;4.550;2022-10-26T06:21:42;16.20;99.90
14489;DHT22;7330;50.804;4.550;2022-10-26T06:26:47;16.20;99.90
14489;DHT22;7330;50.804;4.550;2022-10-26T06:29:19;16.10;99.90
14489;DHT22;7330;50.804;4.550;2022-10-26T06:31:49;16.20;99.90
14489;DHT22;7330;50.804;4.550;2022-10-26T06:34:18;16.20;99.90
14489;DHT22;7330;50.804;4.550;2022-10-26T06:36:46;16.20;99.90
14489;DHT22;7330;50.804;4.550;2022-10-26T06:39:14;16.10;99.90
14489;DHT22;7330;50.804;4.550;2022-10-26T06:41:42;16.20;99.90
14489;DHT22;7330;50.804;4.550;2022-10-26T06:44:10;16.20;99.90
14489;DHT22;7330;50.804;4.550;2022-10-26T06:49:07;16.10;99.90
14489;DHT22;7330;50.804;4.550;2022-10-26T06:51:37;16.10;99.90
14489;DHT22;7330;50.804;4.550;2022-10-26T06:56:33;16.20;99.90
14489;DHT22;7330;50.804;4.550;2022-10-26T07:01:28;16.20;99.90
14489;DHT22;7330;50.804;4.550;2022-10-26T07:03:55;16.20;99.90
14489;DHT22;7330;50.804;4.550;2022-10-26T07:06:23;16.30;99.90
14489;DHT22;7330;50.804;4.550;2022-10-26T07:11:17;16.30;99.90
14489;DHT22;7330;50.804;4.550;2022-10-26T07:13:44;16.40;99.90
14489;DHT22;7330;50.804;4.550;2022-10-26T07:16:10;16.50;99.90
14489;DHT22;7330;50.804;4.550;2022-10-26T07:18:37;16.50;99.90
14489;DHT22;7330;50.804;4.550;2022-10-26T07:21:04;16.60;99.90
14489;DHT22;7330;50.804;4.550;2022-10-26T07:23:32;16.70;99.90
14489;DHT22;7330;50.804;4.550;2022-10-26T07:33:20;17.10;99.90
14489;DHT22;7330;50.804;4.550;2022-10-26T07:35:47;17.20;99.90
14489;DHT22;7330;50.804;4.550;2022-10-26T07:38:14;17.30;99.90
14489;DHT22;7330;50.804;4.550;2022-10-26T07:40:42;17.40;99.90
14489;DHT22;7330;50.804;4.550;2022-10-26T07:43:09;17.60;99.90
14489;DHT22;7330;50.804;4.550;2022-10-26T07:45:35;17.80;99.90
14489;DHT22;7330;50.804;4.550;2022-10-26T07:48:02;18.00;99.90
14489;DHT22;7330;50.804;4.550;2022-10-26T07:50:29;18.10;99.90
14489;DHT22;7330;50.804;4.550;2022-10-26T07:55:23;18.50;99.90
14489;DHT22;7330;50.804;4.550;2022-10-26T07:57:52;18.70;99.90
14489;DHT22;7330;50.804;4.550;2022-10-26T08:00:19;18.90;99.90
14489;DHT22;7330;50.804;4.550;2022-10-26T08:02:46;19.10;99.90
14489;DHT22;7330;50.804;4.550;2022-10-26T08:05:13;19.20;99.90
14489;DHT22;7330;50.804;4.550;2022-10-26T08:07:40;19.40;99.90
14489;DHT22;7330;50.804;4.550;2022-10-26T08:10:07;19.60;99.90
14489;DHT22;7330;50.804;4.550;2022-10-26T08:12:34;19.70;99.90
14489;DHT22;7330;50.804;4.550;2022-10-26T08:17:29;20.10;99.90
14489;DHT22;7330;50.804;4.550;2022-10-26T08:19:57;20.30;99.90
14489;DHT22;7330;50.804;4.550;2022-10-26T08:22:24;20.40;99.90
14489;DHT22;7330;50.804;4.550;2022-10-26T08:24:51;20.50;99.90
14489;DHT22;7330;50.804;4.550;2022-10-26T08:27:18;20.60;99.90
14489;DHT22;7330;50.804;4.550;2022-10-26T08:29:45;20.70;99.90
14489;DHT22;7330;50.804;4.550;2022-10-26T08:32:11;20.80;99.90
14489;DHT22;7330;50.804;4.550;2022-10-26T08:42:03;21.00;99.90
14489;DHT22;7330;50.804;4.550;2022-10-26T08:44:33;21.00;99.90
14489;DHT22;7330;50.804;4.550;2022-10-26T08:47:03;21.10;99.90
14489;DHT22;7330;50.804;4.550;2022-10-26T08:49:34;21.10;99.90
14489;DHT22;7330;50.804;4.550;2022-10-26T08:52:02;21.20;99.90
14489;DHT22;7330;50.804;4.550;2022-10-26T08:54:33;21.20;99.90
14489;DHT22;7330;50.804;4.550;2022-10-26T08:59:30;21.20;99.90
14489;DHT22;7330;50.804;4.550;2022-10-26T09:06:55;21.20;99.90
14489;DHT22;7330;50.804;4.550;2022-10-26T09:09:26;21.20;99.90
14489;DHT22;7330;50.804;4.550;2022-10-26T09:14:31;21.30;99.90
14489;DHT22;7330;50.804;4.550;2022-10-26T09:17:05;21.30;99.90
14489;DHT22;7330;50.804;4.550;2022-10-26T09:19:36;21.40;99.90
14489;DHT22;7330;50.804;4.550;2022-10-26T09:22:09;21.40;99.90
14489;DHT22;7330;50.804;4.550;2022-10-26T09:27:05;21.50;99.90
14489;DHT22;7330;50.804;4.550;2022-10-26T09:29:37;21.50;99.90
14489;DHT22;7330;50.804;4.550;2022-10-26T09:34:36;21.60;99.90
14489;DHT22;7330;50.804;4.550;2022-10-26T09:39:34;21.70;99.90
14489;DHT22;7330;50.804;4.550;2022-10-26T09:44:33;21.70;99.90
14489;DHT22;7330;50.804;4.550;2022-10-26T09:47:03;21.80;99.90
14489;DHT22;7330;50.804;4.550;2022-10-26T09:51:58;21.90;99.90
14489;DHT22;7330;50.804;4.550;2022-10-26T09:54:25;21.90;99.90
14489;DHT22;7330;50.804;4.550;2022-10-26T09:56:53;21.90;99.90
14489;DHT22;7330;50.804;4.550;2022-10-26T10:04:17;21.90;99.90
14489;DHT22;7330;50.804;4.550;2022-10-26T10:06:46;22.00;99.90
14489;DHT22;7330;50.804;4.550;2022-10-26T10:09:14;21.90;99.90
14489;DHT22;7330;50.804;4.550;2022-10-26T10:14:08;22.00;99.90
14489;DHT22;7330;50.804;4.550;2022-10-26T10:16:39;22.10;99.90
14489;DHT22;7330;50.804;4.550;2022-10-26T10:19:09;22.00;99.90
14489;DHT22;7330;50.804;4.550;2022-10-26T10:21:47;22.00;99.90
14489;DHT22;7330;50.804;4.550;2022-10-26T10:24:20;22.00;99.90
14489;DHT22;7330;50.804;4.550;2022-10-26T10:29:14;22.10;99.90
14489;DHT22;7330;50.804;4.550;2022-10-26T10:31:41;22.10;99.90
14489;DHT22;7330;50.804;4.550;2022-10-26T10:34:20;22.10;99.90
14489;DHT22;7330;50.804;4.550;2022-10-26T10:36:49;22.10;99.90
14489;DHT22;7330;50.804;4.550;2022-10-26T10:41:43;22.10;99.90
14489;DHT22;7330;50.804;4.550;2022-10-26T10:46:37;22.00;99.90
14489;DHT22;7330;50.804;4.550;2022-10-26T10:53:59;22.10;99.90
14489;DHT22;7330;50.804;4.550;2022-10-26T10:56:31;22.10;99.90
14489;DHT22;7330;50.804;4.550;2022-10-26T10:59:01;22.00;99.90
14489;DHT22;7330;50.804;4.550;2022-10-26T11:01:31;22.10;99.90
14489;DHT22;7330;50.804;4.550;2022-10-26T11:06:28;22.10;99.90
14489;DHT22;7330;50.804;4.550;2022-10-26T11:11:26;22.10;99.90
14489;DHT22;7330;50.804;4.550;2022-10-26T11:13:57;22.00;99.90
14489;DHT22;7330;50.804;4.550;2022-10-26T11:21:21;22.00;99.90
14489;DHT22;7330;50.804;4.550;2022-10-26T11:26:16;21.90;99.90
14489;DHT22;7330;50.804;4.550;2022-10-26T11:28:48;21.90;99.90
14489;DHT22;7330;50.804;4.550;2022-10-26T11:36:11;22.00;99.90
14489;DHT22;7330;50.804;4.550;2022-10-26T11:41:09;22.00;99.90
14489;DHT22;7330;50.804;4.550;2022-10-26T11:43:39;22.00;99.90
14489;DHT22;7330;50.804;4.550;2022-10-26T11:46:10;22.10;99.90
14489;DHT22;7330;50.804;4.550;2022-10-26T11:48:40;22.10;99.90
14489;DHT22;7330;50.804;4.550;2022-10-26T11:51:10;22.00;99.90
14489;DHT22;7330;50.804;4.550;2022-10-26T11:53:39;22.00;99.90
14489;DHT22;7330;50.804;4.550;2022-10-26T11:56:09;22.00;99.90
14489;DHT22;7330;50.804;4.550;2022-10-26T11:58:38;22.00;99.90
14489;DHT22;7330;50.804;4.550;2022-10-26T12:01:07;22.00;99.90
14489;DHT22;7330;50.804;4.550;2022-10-26T12:03:36;22.00;99.90
14489;DHT22;7330;50.804;4.550;2022-10-26T12:08:37;22.00;99.90
14489;DHT22;7330;50.804;4.550;2022-10-26T12:11:07;21.90;99.90
14489;DHT22;7330;50.804;4.550;2022-10-26T12:13:37;21.90;99.90
14489;DHT22;7330;50.804;4.550;2022-10-26T12:16:06;21.90;99.90
14489;DHT22;7330;50.804;4.550;2022-10-26T12:18:40;21.90;99.90
14489;DHT22;7330;50.804;4.550;2022-10-26T12:21:08;21.90;99.90
14489;DHT22;7330;50.804;4.550;2022-10-26T12:23:37;21.90;99.90
14489;DHT22;7330;50.804;4.550;2022-10-26T12:26:36;21.90;99.90
14489;DHT22;7330;50.804;4.550;2022-10-26T12:29:11;21.90;99.90
14489;DHT22;7330;50.804;4.550;2022-10-26T12:31:41;21.90;99.90
14489;DHT22;7330;50.804;4.550;2022-10-26T12:34:13;21.90;99.90
14489;DHT22;7330;50.804;4.550;2022-10-26T12:41:36;21.90;99.90
14489;DHT22;7330;50.804;4.550;2022-10-26T12:46:46;21.90;99.90
14489;DHT22;7330;50.804;4.550;2022-10-26T12:52:20;21.90;99.90
14489;DHT22;7330;50.804;4.550;2022-10-26T12:57:16;21.90;99.90
14489;DHT22;7330;50.804;4.550;2022-10-26T13:02:22;21.90;99.90
14489;DHT22;7330;50.804;4.550;2022-10-26T13:05:07;21.90;99.90
14489;DHT22;7330;50.804;4.550;2022-10-26T13:07:40;21.80;99.90
14489;DHT22;7330;50.804;4.550;2022-10-26T13:10:16;21.80;99.90
14489;DHT22;7330;50.804;4.550;2022-10-26T13:12:45;21.80;99.90
14489;DHT22;7330;50.804;4.550;2022-10-26T13:20:13;21.80;99.90
14489;DHT22;7330;50.804;4.550;2022-10-26T13:22:44;21.80;99.90
14489;DHT22;7330;50.804;4.550;2022-10-26T13:25:17;21.80;99.90
14489;DHT22;7330;50.804;4.550;2022-10-26T13:27:44;21.80;99.90
14489;DHT22;7330;50.804;4.550;2022-10-26T13:33:13;21.80;99.90
14489;DHT22;7330;50.804;4.550;2022-10-26T13:38:10;21.80;99.90
14489;DHT22;7330;50.804;4.550;2022-10-26T13:43:06;21.70;99.90
14489;DHT22;7330;50.804;4.550;2022-10-26T13:45:52;21.70;99.90
14489;DHT22;7330;50.804;4.550;2022-10-26T13:48:21;21.70;99.90
14489;DHT22;7330;50.804;4.550;2022-10-26T13:53:19;21.70;99.90
14489;DHT22;7330;50.804;4.550;2022-10-26T13:55:49;21.70;99.90
14489;DHT22;7330;50.804;4.550;2022-10-26T13:58:18;21.80;99.90
14489;DHT22;7330;50.804;4.550;2022-10-26T14:01:02;21.70;99.90
14489;DHT22;7330;50.804;4.550;2022-10-26T14:03:29;21.70;99.90
14489;DHT22;7330;50.804;4.550;2022-10-26T14:05:56;21.70;99.90
14489;DHT22;7330;50.804;4.550;2022-10-26T14:10:55;21.70;99.90
14489;DHT22;7330;50.804;4.550;2022-10-26T14:13:24;21.70;99.90
14489;DHT22;7330;50.804;4.550;2022-10-26T14:18:20;21.70;99.90
14489;DHT22;7330;50.804;4.550;2022-10-26T14:20:49;21.70;99.90
14489;DHT22;7330;50.804;4.550;2022-10-26T14:23:26;21.60;99.90
14489;DHT22;7330;50.804;4.550;2022-10-26T14:25:53;21.70;99.90
14489;DHT22;7330;50.804;4.550;2022-10-26T14:28:22;21.70;99.90
14489;DHT22;7330;50.804;4.550;2022-10-26T14:30:49;21.70;99.90
14489;DHT22;7330;50.804;4.550;2022-10-26T14:33:17;21.70;99.90
14489;DHT22;7330;50.804;4.550;2022-10-26T14:35:44;21.70;99.90
14489;DHT22;7330;50.804;4.550;2022-10-26T14:40:40;21.70;99.90
14489;DHT22;7330;50.804;4.550;2022-10-26T14:43:07;21.70;99.90
14489;DHT22;7330;50.804;4.550;2022-10-26T14:48:14;21.80;99.90
14489;DHT22;7330;50.804;4.550;2022-10-26T14:50:55;21.80;99.90
14489;DHT22;7330;50.804;4.550;2022-10-26T14:53:22;21.80;99.90
14489;DHT22;7330;50.804;4.550;2022-10-26T14:55:53;21.80;99.90
14489;DHT22;7330;50.804;4.550;2022-10-26T14:58:21;21.80;99.90
14489;DHT22;7330;50.804;4.550;2022-10-26T15:03:32;21.80;99.90
14489;DHT22;7330;50.804;4.550;2022-10-26T15:08:40;21.80;99.90
14489;DHT22;7330;50.804;4.550;2022-10-26T15:11:07;21.80;99.90
14489;DHT22;7330;50.804;4.550;2022-10-26T15:13:34;21.80;99.90
14489;DHT22;7330;50.804;4.550;2022-10-26T15:16:06;21.80;99.90
14489;DHT22;7330;50.804;4.550;2022-10-26T15:21:02;21.80;99.90
14489;DHT22;7330;50.804;4.550;2022-10-26T15:23:32;21.70;99.90
14489;DHT22;7330;50.804;4.550;2022-10-26T15:26:03;21.70;99.90
14489;DHT22;7330;50.804;4.550;2022-10-26T15:28:31;21.60;99.90
14489;DHT22;7330;50.804;4.550;2022-10-26T15:30:58;21.70;99.90
14489;DHT22;7330;50.804;4.550;2022-10-26T15:33:25;21.60;99.90
14489;DHT22;7330;50.804;4.550;2022-10-26T15:36:03;21.60;99.90
14489;DHT22;7330;50.804;4.550;2022-10-26T15:38:31;21.50;99.90
14489;DHT22;7330;50.804;4.550;2022-10-26T15:40:58;21.50;99.90
14489;DHT22;7330;50.804;4.550;2022-10-26T15:43:24;21.50;99.90
14489;DHT22;7330;50.804;4.550;2022-10-26T15:45:51;21.50;99.90
14489;DHT22;7330;50.804;4.550;2022-10-26T15:48:21;21.50;99.90
14489;DHT22;7330;50.804;4.550;2022-10-26T15:50:49;21.50;99.90
14489;DHT22;7330;50.804;4.550;2022-10-26T15:53:19;21.50;99.90
14489;DHT22;7330;50.804;4.550;2022-10-26T15:55:46;21.40;99.90
14489;DHT22;7330;50.804;4.550;2022-10-26T15:58:13;21.40;99.90
14489;DHT22;7330;50.804;4.550;2022-10-26T16:00:40;21.40;99.90
14489;DHT22;7330;50.804;4.550;2022-10-26T16:03:07;21.40;99.90
14489;DHT22;7330;50.804;4.550;2022-10-26T16:05:35;21.30;99.90
14489;DHT22;7330;50.804;4.550;2022-10-26T16:10:31;21.30;99.90
14489;DHT22;7330;50.804;4.550;2022-10-26T16:12:58;21.20;99.90
14489;DHT22;7330;50.804;4.550;2022-10-26T16:15:25;21.20;99.90
14489;DHT22;7330;50.804;4.550;2022-10-26T16:17:52;21.10;99.90
14489;DHT22;7330;50.804;4.550;2022-10-26T16:20:20;21.10;99.90
14489;DHT22;7330;50.804;4.550;2022-10-26T16:22:48;21.10;99.90
14489;DHT22;7330;50.804;4.550;2022-10-26T16:25:16;21.10;99.90
14489;DHT22;7330;50.804;4.550;2022-10-26T16:32:39;21.00;99.90
14489;DHT22;7330;50.804;4.550;2022-10-26T16:35:06;20.80;99.90
14489;DHT22;7330;50.804;4.550;2022-10-26T16:42:29;20.70;99.90
14489;DHT22;7330;50.804;4.550;2022-10-26T16:47:23;20.60;99.90
14489;DHT22;7330;50.804;4.550;2022-10-26T16:49:51;20.60;99.90
14489;DHT22;7330;50.804;4.550;2022-10-26T16:54:45;20.50;99.90
14489;DHT22;7330;50.804;4.550;2022-10-26T16:59:38;20.50;99.90
14489;DHT22;7330;50.804;4.550;2022-10-26T17:04:32;20.40;99.90
14489;DHT22;7330;50.804;4.550;2022-10-26T17:07:00;20.40;99.90
14489;DHT22;7330;50.804;4.550;2022-10-26T17:09:27;20.40;99.90
14489;DHT22;7330;50.804;4.550;2022-10-26T17:16:47;20.30;99.90
14489;DHT22;7330;50.804;4.550;2022-10-26T17:19:14;20.20;99.90
14489;DHT22;7330;50.804;4.550;2022-10-26T17:21:41;20.20;99.90
14489;DHT22;7330;50.804;4.550;2022-10-26T17:26:49;20.20;99.90
14489;DHT22;7330;50.804;4.550;2022-10-26T17:29:16;20.20;99.90
14489;DHT22;7330;50.804;4.550;2022-10-26T17:31:43;20.10;99.90
14489;DHT22;7330;50.804;4.550;2022-10-26T17:34:09;20.10;99.90
14489;DHT22;7330;50.804;4.550;2022-10-26T17:36:36;20.10;99.90
14489;DHT22;7330;50.804;4.550;2022-10-26T17:39:03;20.00;99.90
14489;DHT22;7330;50.804;4.550;2022-10-26T17:43:58;19.90;99.90
14489;DHT22;7330;50.804;4.550;2022-10-26T17:46:25;19.90;99.90
14489;DHT22;7330;50.804;4.550;2022-10-26T17:48:52;19.80;99.90
14489;DHT22;7330;50.804;4.550;2022-10-26T17:51:19;19.80;99.90
14489;DHT22;7330;50.804;4.550;2022-10-26T17:53:46;19.70;99.90
14489;DHT22;7330;50.804;4.550;2022-10-26T17:56:15;19.70;99.90
14489;DHT22;7330;50.804;4.550;2022-10-26T17:58:42;19.70;99.90
14489;DHT22;7330;50.804;4.550;2022-10-26T18:06:04;19.60;99.90
14489;DHT22;7330;50.804;4.550;2022-10-26T18:08:32;19.50;99.90
14489;DHT22;7330;50.804;4.550;2022-10-26T18:10:59;19.50;99.90
14489;DHT22;7330;50.804;4.550;2022-10-26T18:13:26;19.50;99.90
14489;DHT22;7330;50.804;4.550;2022-10-26T18:15:58;19.50;99.90
14489;DHT22;7330;50.804;4.550;2022-10-26T18:18:27;19.40;99.90
14489;DHT22;7330;50.804;4.550;2022-10-26T18:20:58;19.40;99.90
14489;DHT22;7330;50.804;4.550;2022-10-26T18:23:26;19.30;99.90
14489;DHT22;7330;50.804;4.550;2022-10-26T18:28:20;19.20;99.90
14489;DHT22;7330;50.804;4.550;2022-10-26T18:30:47;19.20;99.90
14489;DHT22;7330;50.804;4.550;2022-10-26T18:35:41;19.10;99.90
14489;DHT22;7330;50.804;4.550;2022-10-26T18:38:07;19.00;99.90
14489;DHT22;7330;50.804;4.550;2022-10-26T18:40:35;19.00;99.90
14489;DHT22;7330;50.804;4.550;2022-10-26T18:43:02;18.90;99.90
14489;DHT22;7330;50.804;4.550;2022-10-26T18:45:29;18.90;99.90
14489;DHT22;7330;50.804;4.550;2022-10-26T18:47:56;18.80;99.90
14489;DHT22;7330;50.804;4.550;2022-10-26T18:50:22;18.90;99.90
14489;DHT22;7330;50.804;4.550;2022-10-26T18:52:49;18.80;99.90
14489;DHT22;7330;50.804;4.550;2022-10-26T18:55:16;18.80;99.90
14489;DHT22;7330;50.804;4.550;2022-10-26T18:57:44;18.70;99.90
14489;DHT22;7330;50.804;4.550;2022-10-26T19:00:12;18.80;99.90
14489;DHT22;7330;50.804;4.550;2022-10-26T19:02:39;18.70;99.90
14489;DHT22;7330;50.804;4.550;2022-10-26T19:05:06;18.70;99.90
14489;DHT22;7330;50.804;4.550;2022-10-26T19:07:32;18.70;99.90
14489;DHT22;7330;50.804;4.550;2022-10-26T19:10:02;18.70;99.90
14489;DHT22;7330;50.804;4.550;2022-10-26T19:12:29;18.70;99.90
14489;DHT22;7330;50.804;4.550;2022-10-26T19:14:57;18.60;99.90
14489;DHT22;7330;50.804;4.550;2022-10-26T19:19:51;18.50;99.90
14489;DHT22;7330;50.804;4.550;2022-10-26T19:22:18;18.50;99.90
14489;DHT22;7330;50.804;4.550;2022-10-26T19:24:45;18.50;99.90
14489;DHT22;7330;50.804;4.550;2022-10-26T19:34:35;18.40;99.90
14489;DHT22;7330;50.804;4.550;2022-10-26T19:41:56;18.30;99.90
14489;DHT22;7330;50.804;4.550;2022-10-26T19:44:23;18.30;99.90
14489;DHT22;7330;50.804;4.550;2022-10-26T19:46:50;18.20;99.90
14489;DHT22;7330;50.804;4.550;2022-10-26T19:49:16;18.20;99.90
14489;DHT22;7330;50.804;4.550;2022-10-26T19:51:44;18.10;99.90
14489;DHT22;7330;50.804;4.550;2022-10-26T19:54:12;18.00;99.90
14489;DHT22;7330;50.804;4.550;2022-10-26T19:56:39;18.00;99.90
14489;DHT22;7330;50.804;4.550;2022-10-26T20:01:33;17.90;99.90
14489;DHT22;7330;50.804;4.550;2022-10-26T20:04:00;17.90;99.90
14489;DHT22;7330;50.804;4.550;2022-10-26T20:06:27;17.80;99.90
14489;DHT22;7330;50.804;4.550;2022-10-26T20:13:50;17.70;99.90
14489;DHT22;7330;50.804;4.550;2022-10-26T20:16:17;17.70;99.90
14489;DHT22;7330;50.804;4.550;2022-10-26T20:18:43;17.70;99.90
14489;DHT22;7330;50.804;4.550;2022-10-26T20:23:39;17.60;99.90
14489;DHT22;7330;50.804;4.550;2022-10-26T20:26:05;17.60;99.90
14489;DHT22;7330;50.804;4.550;2022-10-26T20:28:32;17.60;99.90
14489;DHT22;7330;50.804;4.550;2022-10-26T20:31:00;17.50;99.90